createdAt,value
2023-04-27T00:00:49.499Z,1015.77
2023-04-27T00:01:49.582Z,1015.76
2023-04-27T00:02:49.753Z,1015.75
2023-04-27T00:03:50.013Z,1015.78
2023-04-27T00:04:50.062Z,1015.75
2023-04-27T00:05:49.677Z,1015.77
2023-04-27T00:06:49.677Z,1015.75
2023-04-27T00:07:49.706Z,1015.73
2023-04-27T00:08:49.738Z,1015.76
2023-04-27T00:09:49.761Z,1015.80
2023-04-27T00:10:49.796Z,1015.76
2023-04-27T00:11:50.064Z,1015.79
2023-04-27T00:12:49.870Z,1015.74
2023-04-27T00:13:49.879Z,1015.75
2023-04-27T00:14:49.925Z,1015.76
2023-04-27T00:15:49.951Z,1015.78
2023-04-27T00:16:50.206Z,1015.77
2023-04-27T00:17:50.015Z,1015.79
2023-04-27T00:18:50.361Z,1015.82
2023-04-27T00:19:50.068Z,1015.83
2023-04-27T00:20:50.104Z,1015.79
2023-04-27T00:21:50.116Z,1015.80
2023-04-27T00:22:50.158Z,1015.79
2023-04-27T00:23:50.189Z,1015.80
2023-04-27T00:24:50.209Z,1015.80
2023-04-27T00:25:50.545Z,1015.81
2023-04-27T00:26:50.273Z,1015.81
2023-04-27T00:27:50.304Z,1015.80
2023-04-27T00:28:50.335Z,1015.81
2023-04-27T00:29:50.373Z,1015.85
2023-04-27T00:30:50.396Z,1015.88
2023-04-27T00:31:50.516Z,1015.88
2023-04-27T00:32:50.825Z,1015.90
2023-04-27T00:33:50.481Z,1015.88
2023-04-27T00:34:50.540Z,1015.88
2023-04-27T00:35:50.543Z,1015.85
2023-04-27T00:36:50.576Z,1015.87
2023-04-27T00:37:50.599Z,1015.89
2023-04-27T00:38:50.634Z,1015.89
2023-04-27T00:39:50.990Z,1015.88
2023-04-27T00:40:50.704Z,1015.84
2023-04-27T00:41:50.719Z,1015.87
2023-04-27T00:42:50.760Z,1015.87
2023-04-27T00:43:50.795Z,1015.86
2023-04-27T00:44:50.816Z,1015.84
2023-04-27T00:45:50.901Z,1015.88
2023-04-27T00:46:51.178Z,1015.86
2023-04-27T00:47:50.937Z,1015.85
2023-04-27T00:48:50.947Z,1015.83
2023-04-27T00:49:50.963Z,1015.86
2023-04-27T00:50:51.010Z,1015.89
2023-04-27T00:51:51.044Z,1015.85
2023-04-27T00:52:51.059Z,1015.86
2023-04-27T00:53:51.387Z,1015.83
2023-04-27T00:54:51.113Z,1015.79
2023-04-27T00:55:51.170Z,1015.76
2023-04-27T00:56:51.179Z,1015.75
2023-04-27T00:57:51.221Z,1015.77
2023-04-27T00:58:51.240Z,1015.75
2023-04-27T00:59:51.264Z,1015.78
2023-04-27T01:00:51.573Z,1015.81
2023-04-27T01:01:51.326Z,1015.80
2023-04-27T01:02:51.495Z,1015.79
2023-04-27T01:03:51.601Z,1015.81
2023-04-27T01:04:51.441Z,1015.80
2023-04-27T01:05:51.448Z,1015.78
2023-04-27T01:06:51.511Z,1015.83
2023-04-27T01:07:51.802Z,1015.82
2023-04-27T01:08:51.559Z,1015.82
2023-04-27T01:09:51.565Z,1015.83
2023-04-27T01:10:51.592Z,1015.83
2023-04-27T01:11:51.677Z,1015.84
2023-04-27T01:13:51.690Z,1015.88
2023-04-27T01:14:52.012Z,1015.90
2023-04-27T01:15:51.754Z,1015.91
2023-04-27T01:16:51.809Z,1015.82
2023-04-27T01:17:51.855Z,1015.86
2023-04-27T01:18:51.862Z,1015.85
2023-04-27T01:19:51.865Z,1015.82
2023-04-27T01:20:51.896Z,1015.81
2023-04-27T01:21:52.233Z,1015.83
2023-04-27T01:22:51.972Z,1015.78
2023-04-27T01:23:51.981Z,1015.77
2023-04-27T01:24:52.022Z,1015.80
2023-04-27T01:25:52.045Z,1015.76
2023-04-27T01:26:52.074Z,1015.74
2023-04-27T01:27:52.103Z,1015.79
2023-04-27T01:28:52.431Z,1015.78
2023-04-27T01:29:52.166Z,1015.78
2023-04-27T01:30:52.244Z,1015.81
2023-04-27T01:31:52.222Z,1015.76
2023-04-27T01:32:52.288Z,1015.79
2023-04-27T01:33:52.279Z,1015.79
2023-04-27T01:34:52.616Z,1015.78
2023-04-27T01:35:52.350Z,1015.78
2023-04-27T01:36:52.375Z,1015.77
2023-04-27T01:37:52.402Z,1015.78
2023-04-27T01:38:52.450Z,1015.77
2023-04-27T01:39:52.572Z,1015.76
2023-04-27T01:40:52.795Z,1015.80
2023-04-27T01:41:52.528Z,1015.79
2023-04-27T01:42:52.574Z,1015.82
2023-04-27T01:43:52.603Z,1015.80
2023-04-27T01:44:52.627Z,1015.87
2023-04-27T01:45:52.671Z,1015.84
2023-04-27T01:46:52.985Z,1015.86
2023-04-27T01:47:52.812Z,1015.86
2023-04-27T01:48:52.753Z,1015.87
2023-04-27T01:49:52.781Z,1015.86
2023-04-27T01:50:52.792Z,1015.88
2023-04-27T01:51:52.820Z,1015.89
2023-04-27T01:52:52.854Z,1015.88
2023-04-27T01:54:52.939Z,1015.90
2023-04-27T01:55:52.958Z,1015.89
2023-04-27T01:56:52.976Z,1015.90
2023-04-27T01:57:52.999Z,1015.90
2023-04-27T01:58:53.043Z,1015.93
2023-04-27T01:59:53.067Z,1015.92
2023-04-27T02:00:53.407Z,1015.95
2023-04-27T02:01:53.152Z,1015.97
2023-04-27T02:02:53.295Z,1015.96
2023-04-27T02:03:53.448Z,1015.97
2023-04-27T02:04:53.236Z,1015.95
2023-04-27T02:05:53.248Z,1015.95
2023-04-27T02:06:53.279Z,1015.94
2023-04-27T02:07:53.610Z,1016.00
2023-04-27T02:08:53.337Z,1015.97
2023-04-27T02:10:53.524Z,1016.00
2023-04-27T02:11:53.426Z,1015.98
2023-04-27T02:12:53.453Z,1015.98
2023-04-27T02:14:53.811Z,1015.94
2023-04-27T02:15:53.570Z,1016.00
2023-04-27T02:17:53.642Z,1016.00
2023-04-27T02:18:53.636Z,1015.99
2023-04-27T02:19:53.711Z,1015.93
2023-04-27T02:20:53.714Z,1015.95
2023-04-27T02:21:54.021Z,1015.96
2023-04-27T02:23:53.781Z,1015.98
2023-04-27T02:24:53.813Z,1015.96
2023-04-27T02:25:53.857Z,1015.99
2023-04-27T02:26:53.890Z,1015.96
2023-04-27T02:27:53.901Z,1015.96
2023-04-27T02:28:54.234Z,1015.96
2023-04-27T02:30:54.013Z,1015.98
2023-04-27T02:31:54.119Z,1016.01
2023-04-27T02:32:54.076Z,1016.00
2023-04-27T02:33:54.100Z,1016.02
2023-04-27T02:34:54.112Z,1015.99
2023-04-27T02:35:54.395Z,1015.98
2023-04-27T02:36:54.193Z,1016.00
2023-04-27T02:37:54.205Z,1015.99
2023-04-27T02:38:54.239Z,1016.02
2023-04-27T02:40:54.296Z,1016.05
2023-04-27T02:41:54.318Z,1016.03
2023-04-27T02:42:54.626Z,1016.00
2023-04-27T02:43:54.382Z,1015.99
2023-04-27T02:44:54.513Z,1015.94
2023-04-27T02:45:54.434Z,1015.94
2023-04-27T02:46:54.588Z,1015.92
2023-04-27T02:47:54.589Z,1015.95
2023-04-27T02:48:54.533Z,1015.95
2023-04-27T02:49:54.807Z,1015.86
2023-04-27T02:50:54.591Z,1015.88
2023-04-27T02:51:54.639Z,1015.85
2023-04-27T02:52:54.642Z,1015.84
2023-04-27T02:53:54.686Z,1015.85
2023-04-27T02:54:54.702Z,1015.86
2023-04-27T02:55:54.743Z,1015.85
2023-04-27T02:56:55.064Z,1015.85
2023-04-27T02:57:54.790Z,1015.86
2023-04-27T02:58:54.951Z,1015.85
2023-04-27T02:59:54.860Z,1015.88
2023-04-27T03:00:54.926Z,1015.87
2023-04-27T03:01:54.918Z,1015.85
2023-04-27T03:02:55.005Z,1015.84
2023-04-27T03:03:55.413Z,1015.85
2023-04-27T03:04:55.005Z,1015.81
2023-04-27T03:05:55.039Z,1015.83
2023-04-27T03:06:55.085Z,1015.80
2023-04-27T03:07:55.098Z,1015.81
2023-04-27T03:08:55.130Z,1015.81
2023-04-27T03:09:55.446Z,1015.76
2023-04-27T03:10:55.477Z,1015.80
2023-04-27T03:11:55.207Z,1015.79
2023-04-27T03:12:55.230Z,1015.78
2023-04-27T03:13:55.272Z,1015.76
2023-04-27T03:14:55.320Z,1015.74
2023-04-27T03:15:55.343Z,1015.80
2023-04-27T03:16:55.432Z,1015.79
2023-04-27T03:17:55.725Z,1015.78
2023-04-27T03:18:55.425Z,1015.81
2023-04-27T03:20:55.494Z,1015.85
2023-04-27T03:21:55.503Z,1015.83
2023-04-27T03:22:55.532Z,1015.83
2023-04-27T03:24:55.901Z,1015.85
2023-04-27T03:25:55.618Z,1015.82
2023-04-27T03:26:55.652Z,1015.82
2023-04-27T03:27:55.694Z,1015.80
2023-04-27T03:28:55.712Z,1015.82
2023-04-27T03:29:55.746Z,1015.81
2023-04-27T03:30:55.794Z,1015.83
2023-04-27T03:31:55.925Z,1015.84
2023-04-27T03:32:55.848Z,1015.79
2023-04-27T03:33:55.860Z,1015.80
2023-04-27T03:34:55.894Z,1015.78
2023-04-27T03:35:55.926Z,1015.78
2023-04-27T03:36:56.268Z,1015.74
2023-04-27T03:37:55.984Z,1015.76
2023-04-27T03:38:56.010Z,1015.73
2023-04-27T03:40:56.068Z,1015.76
2023-04-27T03:42:57.539Z,1015.78
2023-04-27T03:43:56.164Z,1015.75
2023-04-27T03:44:56.192Z,1015.75
2023-04-27T03:45:56.276Z,1015.77
2023-04-27T03:46:56.271Z,1015.75
2023-04-27T03:47:56.303Z,1015.77
2023-04-27T03:48:56.307Z,1015.79
2023-04-27T03:49:56.640Z,1015.76
2023-04-27T03:50:56.402Z,1015.80
2023-04-27T03:51:56.399Z,1015.80
2023-04-27T03:52:56.423Z,1015.81
2023-04-27T03:53:56.454Z,1015.79
2023-04-27T03:54:56.489Z,1015.85
2023-04-27T03:55:56.520Z,1015.81
2023-04-27T03:56:56.857Z,1015.86
2023-04-27T03:57:56.680Z,1015.86
2023-04-27T03:58:56.608Z,1015.86
2023-04-27T03:59:56.630Z,1015.87
2023-04-27T04:00:56.662Z,1015.89
2023-04-27T04:01:57.848Z,1015.89
2023-04-27T04:02:56.996Z,1015.88
2023-04-27T04:03:57.279Z,1015.90
2023-04-27T04:04:57.092Z,1015.90
2023-04-27T04:05:56.830Z,1015.93
2023-04-27T04:06:56.832Z,1015.98
2023-04-27T04:07:56.876Z,1015.99
2023-04-27T04:08:56.910Z,1015.96
2023-04-27T04:09:56.926Z,1015.99
2023-04-27T04:10:57.205Z,1016.02
2023-04-27T04:11:56.986Z,1016.04
2023-04-27T04:12:57.014Z,1016.07
2023-04-27T04:13:57.043Z,1016.09
2023-04-27T04:14:57.073Z,1016.08
2023-04-27T04:15:57.137Z,1016.11
2023-04-27T04:16:57.141Z,1016.12
2023-04-27T04:17:57.514Z,1016.13
2023-04-27T04:18:57.218Z,1016.15
2023-04-27T04:19:57.223Z,1016.13
2023-04-27T04:20:57.251Z,1016.13
2023-04-27T04:21:57.289Z,1016.12
2023-04-27T04:22:57.321Z,1016.11
2023-04-27T04:23:57.347Z,1016.09
2023-04-27T04:24:57.624Z,1016.08
2023-04-27T04:25:57.403Z,1016.07
2023-04-27T04:26:57.439Z,1016.10
2023-04-27T04:27:57.461Z,1016.10
2023-04-27T04:28:57.496Z,1016.08
2023-04-27T04:29:57.618Z,1016.11
2023-04-27T04:30:57.597Z,1016.12
2023-04-27T04:31:57.915Z,1016.10
2023-04-27T04:32:57.629Z,1016.09
2023-04-27T04:33:57.634Z,1016.11
2023-04-27T04:35:57.710Z,1016.15
2023-04-27T04:36:57.844Z,1016.16
2023-04-27T04:37:57.752Z,1016.21
2023-04-27T04:38:57.785Z,1016.21
2023-04-27T04:39:57.810Z,1016.24
2023-04-27T04:40:57.859Z,1016.26
2023-04-27T04:42:57.902Z,1016.24
2023-04-27T04:44:58.274Z,1016.27
2023-04-27T04:45:57.992Z,1016.33
2023-04-27T04:46:58.087Z,1016.31
2023-04-27T04:47:58.062Z,1016.28
2023-04-27T04:48:58.125Z,1016.25
2023-04-27T04:49:58.118Z,1016.27
2023-04-27T04:50:58.397Z,1016.23
2023-04-27T04:51:58.192Z,1016.25
2023-04-27T04:52:58.198Z,1016.29
2023-04-27T04:53:59.004Z,1016.31
2023-04-27T04:54:58.355Z,1016.29
2023-04-27T04:55:58.295Z,1016.29
2023-04-27T04:56:58.327Z,1016.26
2023-04-27T04:57:58.342Z,1016.25
2023-04-27T04:58:58.373Z,1016.26
2023-04-27T04:59:58.499Z,1016.26
2023-04-27T05:00:58.436Z,1016.29
2023-04-27T05:01:58.519Z,1016.24
2023-04-27T05:02:58.750Z,1016.28
2023-04-27T05:03:58.768Z,1016.30
2023-04-27T05:04:58.585Z,1016.32
2023-04-27T05:05:58.582Z,1016.35
2023-04-27T05:06:58.610Z,1016.37
2023-04-27T05:08:58.988Z,1016.42
2023-04-27T05:09:58.700Z,1016.38
2023-04-27T05:10:58.732Z,1016.40
2023-04-27T05:11:58.757Z,1016.40
2023-04-27T05:12:58.820Z,1016.45
2023-04-27T05:13:58.814Z,1016.40
2023-04-27T05:14:58.872Z,1016.45
2023-04-27T05:15:58.974Z,1016.37
2023-04-27T05:16:58.910Z,1016.42
2023-04-27T05:18:58.967Z,1016.39
2023-04-27T05:19:59.236Z,1016.41
2023-04-27T05:20:59.035Z,1016.39
2023-04-27T05:21:59.359Z,1016.41
2023-04-27T05:22:59.085Z,1016.39
2023-04-27T05:23:59.107Z,1016.43
2023-04-27T05:24:59.194Z,1016.42
2023-04-27T05:25:59.174Z,1016.41
2023-04-27T05:27:01.521Z,1016.41
2023-04-27T05:27:59.228Z,1016.39
2023-04-27T05:28:59.608Z,1016.40
2023-04-27T05:29:59.290Z,1016.44
2023-04-27T05:30:59.321Z,1016.46
2023-04-27T05:31:59.529Z,1016.45
2023-04-27T05:32:59.439Z,1016.45
2023-04-27T05:34:59.440Z,1016.46
2023-04-27T05:35:59.769Z,1016.50
2023-04-27T05:36:59.495Z,1016.50
2023-04-27T05:37:59.531Z,1016.46
2023-04-27T05:38:59.562Z,1016.50
2023-04-27T05:39:59.602Z,1016.51
2023-04-27T05:40:59.685Z,1016.56
2023-04-27T05:41:59.959Z,1016.54
2023-04-27T05:42:59.673Z,1016.55
2023-04-27T05:43:59.715Z,1016.58
2023-04-27T05:44:59.733Z,1016.58
2023-04-27T05:45:59.773Z,1016.64
2023-04-27T05:46:59.802Z,1016.64
2023-04-27T05:48:00.313Z,1016.64
2023-04-27T05:48:59.857Z,1016.67
2023-04-27T05:49:59.930Z,1016.60
2023-04-27T05:50:59.907Z,1016.65
2023-04-27T05:52:00.009Z,1016.68
2023-04-27T05:52:59.973Z,1016.65
2023-04-27T05:54:00.314Z,1016.65
2023-04-27T05:55:00.041Z,1016.64
2023-04-27T05:56:00.083Z,1016.66
2023-04-27T05:57:00.165Z,1016.65
2023-04-27T05:58:07.586Z,1016.70
2023-04-27T05:59:02.527Z,1016.68
2023-04-27T06:00:00.176Z,1016.71
2023-04-27T06:01:00.508Z,1016.72
2023-04-27T06:02:00.287Z,1016.72
2023-04-27T06:03:00.532Z,1016.72
2023-04-27T06:05:00.350Z,1016.73
2023-04-27T06:06:00.366Z,1016.68
2023-04-27T06:07:00.402Z,1016.70
2023-04-27T06:08:00.725Z,1016.68
2023-04-27T06:09:00.443Z,1016.69
2023-04-27T06:10:00.466Z,1016.72
2023-04-27T06:12:00.532Z,1016.70
2023-04-27T06:13:00.578Z,1016.77
2023-04-27T06:14:00.597Z,1016.74
2023-04-27T06:15:00.921Z,1016.77
2023-04-27T06:17:00.684Z,1016.78
2023-04-27T06:18:00.861Z,1016.80
2023-04-27T06:19:00.744Z,1016.79
2023-04-27T06:20:00.780Z,1016.79
2023-04-27T06:21:00.798Z,1016.82
2023-04-27T06:22:01.126Z,1016.84
2023-04-27T06:23:00.862Z,1016.84
2023-04-27T06:24:00.907Z,1016.84
2023-04-27T06:25:00.921Z,1016.84
2023-04-27T06:26:00.956Z,1016.81
2023-04-27T06:27:00.972Z,1016.80
2023-04-27T06:28:01.023Z,1016.83
2023-04-27T06:29:01.368Z,1016.79
2023-04-27T06:30:01.096Z,1016.81
2023-04-27T06:31:01.131Z,1016.79
2023-04-27T06:32:01.227Z,1016.76
2023-04-27T06:33:01.348Z,1016.73
2023-04-27T06:34:01.176Z,1016.77
2023-04-27T06:35:01.207Z,1016.73
2023-04-27T06:36:01.540Z,1016.77
2023-04-27T06:37:01.278Z,1016.75
2023-04-27T06:38:01.314Z,1016.75
2023-04-27T06:39:01.345Z,1016.78
2023-04-27T06:40:01.364Z,1016.78
2023-04-27T06:41:01.434Z,1016.79
2023-04-27T06:42:01.436Z,1016.79
2023-04-27T06:43:01.754Z,1016.82
2023-04-27T06:44:01.478Z,1016.81
2023-04-27T06:45:01.838Z,1016.84
2023-04-27T06:46:01.582Z,1016.85
2023-04-27T06:47:01.592Z,1016.85
2023-04-27T06:48:01.665Z,1016.87
2023-04-27T06:49:01.628Z,1016.85
2023-04-27T06:50:01.903Z,1016.87
2023-04-27T06:51:01.697Z,1016.83
2023-04-27T06:52:01.711Z,1016.83
2023-04-27T06:53:01.746Z,1016.78
2023-04-27T06:54:02.522Z,1016.82
2023-04-27T06:55:01.806Z,1016.84
2023-04-27T06:56:01.836Z,1016.84
2023-04-27T06:57:02.159Z,1016.81
2023-04-27T06:58:01.889Z,1016.79
2023-04-27T06:59:01.934Z,1016.76
2023-04-27T07:00:02.059Z,1016.76
2023-04-27T07:02:02.243Z,1016.72
2023-04-27T07:03:02.151Z,1016.72
2023-04-27T07:04:02.460Z,1016.73
2023-04-27T07:05:02.363Z,1016.77
2023-04-27T07:06:02.124Z,1016.74
2023-04-27T07:07:02.164Z,1016.76
2023-04-27T07:08:05.339Z,1016.76
2023-04-27T07:09:03.471Z,1016.76
2023-04-27T07:10:02.247Z,1016.80
2023-04-27T07:11:02.678Z,1016.75
2023-04-27T07:12:02.305Z,1016.80
2023-04-27T07:13:02.347Z,1016.79
2023-04-27T07:14:02.365Z,1016.83
2023-04-27T07:15:02.392Z,1016.80
2023-04-27T07:16:02.449Z,1016.79
2023-04-27T07:17:02.533Z,1016.82
2023-04-27T07:18:02.842Z,1016.77
2023-04-27T07:19:02.514Z,1016.80
2023-04-27T07:20:02.546Z,1016.75
2023-04-27T07:21:02.577Z,1016.78
2023-04-27T07:22:02.605Z,1016.76
2023-04-27T07:23:02.640Z,1016.83
2023-04-27T07:24:02.854Z,1016.78
2023-04-27T07:25:02.996Z,1016.80
2023-04-27T07:26:02.737Z,1016.80
2023-04-27T07:27:02.761Z,1016.77
2023-04-27T07:28:02.797Z,1016.78
2023-04-27T07:29:11.216Z,1016.76
2023-04-27T07:30:02.853Z,1016.71
2023-04-27T07:31:02.887Z,1016.70
2023-04-27T07:32:03.241Z,1016.74
2023-04-27T07:33:03.022Z,1016.75
2023-04-27T07:34:02.985Z,1016.78
2023-04-27T07:35:03.008Z,1016.78
2023-04-27T07:36:03.029Z,1016.80
2023-04-27T07:37:03.052Z,1016.76
2023-04-27T07:39:03.410Z,1016.73
2023-04-27T07:40:03.146Z,1016.73
2023-04-27T07:42:03.197Z,1016.70
2023-04-27T07:43:03.292Z,1016.74
2023-04-27T07:44:03.261Z,1016.73
2023-04-27T07:45:03.599Z,1016.77
2023-04-27T07:46:03.335Z,1016.73
2023-04-27T07:47:03.352Z,1016.70
2023-04-27T07:48:03.413Z,1016.69
2023-04-27T07:49:03.409Z,1016.66
2023-04-27T07:50:03.456Z,1016.63
2023-04-27T07:51:03.774Z,1016.64
2023-04-27T07:52:03.500Z,1016.66
2023-04-27T07:53:03.528Z,1016.63
2023-04-27T07:54:03.559Z,1016.65
2023-04-27T07:55:03.588Z,1016.66
2023-04-27T07:56:03.614Z,1016.69
2023-04-27T07:57:03.950Z,1016.63
2023-04-27T07:58:03.684Z,1016.67
2023-04-27T08:00:03.734Z,1016.66
2023-04-27T08:01:03.784Z,1016.65
2023-04-27T08:02:18.550Z,1016.66
2023-04-27T08:03:04.145Z,1016.65
2023-04-27T08:04:04.206Z,1016.65
2023-04-27T08:05:04.439Z,1016.63
2023-04-27T08:06:04.133Z,1016.61
2023-04-27T08:07:04.307Z,1016.60
2023-04-27T08:09:04.007Z,1016.60
2023-04-27T08:10:04.347Z,1016.60
2023-04-27T08:11:04.077Z,1016.62
2023-04-27T08:12:04.100Z,1016.61
2023-04-27T08:13:04.136Z,1016.63
2023-04-27T08:14:04.161Z,1016.59
2023-04-27T08:15:04.188Z,1016.56
2023-04-27T08:16:04.280Z,1016.60
2023-04-27T08:17:04.599Z,1016.58
2023-04-27T08:18:04.378Z,1016.52
2023-04-27T08:19:04.317Z,1016.53
2023-04-27T08:21:04.467Z,1016.52
2023-04-27T08:22:04.424Z,1016.53
2023-04-27T08:23:04.435Z,1016.54
2023-04-27T08:25:04.489Z,1016.54
2023-04-27T08:26:04.569Z,1016.54
2023-04-27T08:27:04.559Z,1016.51
2023-04-27T08:28:04.583Z,1016.49
2023-04-27T08:29:15.408Z,1016.47
2023-04-27T08:30:04.646Z,1016.45
2023-04-27T08:31:04.974Z,1016.44
2023-04-27T08:32:04.720Z,1016.47
2023-04-27T08:34:04.764Z,1016.46
2023-04-27T08:35:04.794Z,1016.45
2023-04-27T08:36:04.875Z,1016.46
2023-04-27T08:37:04.857Z,1016.44
2023-04-27T08:38:05.205Z,1016.45
2023-04-27T08:40:04.950Z,1016.37
2023-04-27T08:41:20.379Z,1016.42
2023-04-27T08:42:05.002Z,1016.43
2023-04-27T08:43:05.040Z,1016.41
2023-04-27T08:44:05.062Z,1016.43
2023-04-27T08:45:05.408Z,1016.40
2023-04-27T08:46:05.151Z,1016.39
2023-04-27T08:47:05.188Z,1016.39
2023-04-27T08:48:05.234Z,1016.39
2023-04-27T08:49:06.034Z,1016.36
2023-04-27T08:50:05.529Z,1016.41
2023-04-27T08:51:06.261Z,1016.39
2023-04-27T08:52:05.683Z,1016.41
2023-04-27T08:53:05.351Z,1016.43
2023-04-27T08:54:05.404Z,1016.43
2023-04-27T08:55:05.415Z,1016.39
2023-04-27T08:56:05.426Z,1016.37
2023-04-27T08:57:05.761Z,1016.39
2023-04-27T08:58:05.490Z,1016.40
2023-04-27T08:59:05.519Z,1016.37
2023-04-27T09:00:05.551Z,1016.41
2023-04-27T09:01:05.604Z,1016.38
2023-04-27T09:02:05.689Z,1016.37
2023-04-27T09:03:06.082Z,1016.34
2023-04-27T09:04:05.914Z,1016.35
2023-04-27T09:06:06.308Z,1016.35
2023-04-27T09:07:05.774Z,1016.31
2023-04-27T09:08:05.901Z,1016.28
2023-04-27T09:09:05.839Z,1016.28
2023-04-27T09:10:06.186Z,1016.27
2023-04-27T09:11:05.884Z,1016.29
2023-04-27T09:12:05.916Z,1016.31
2023-04-27T09:13:05.966Z,1016.28
2023-04-27T09:14:05.978Z,1016.28
2023-04-27T09:15:06.015Z,1016.29
2023-04-27T09:16:06.058Z,1016.33
2023-04-27T09:17:06.377Z,1016.34
2023-04-27T09:18:06.125Z,1016.29
2023-04-27T09:19:06.144Z,1016.32
2023-04-27T09:20:06.166Z,1016.31
2023-04-27T09:21:06.215Z,1016.29
2023-04-27T09:22:06.351Z,1016.30
2023-04-27T09:23:06.255Z,1016.25
2023-04-27T09:24:06.590Z,1016.26
2023-04-27T09:25:06.320Z,1016.26
2023-04-27T09:26:06.368Z,1016.25
2023-04-27T09:27:06.384Z,1016.26
2023-04-27T09:28:06.416Z,1016.29
2023-04-27T09:29:06.446Z,1016.29
2023-04-27T09:30:06.477Z,1016.31
2023-04-27T09:31:06.755Z,1016.27
2023-04-27T09:32:06.672Z,1016.27
2023-04-27T09:33:06.648Z,1016.28
2023-04-27T09:34:06.597Z,1016.27
2023-04-27T09:35:06.651Z,1016.25
2023-04-27T09:36:06.660Z,1016.25
2023-04-27T09:37:06.685Z,1016.25
2023-04-27T09:38:06.965Z,1016.27
2023-04-27T09:39:06.768Z,1016.26
2023-04-27T09:40:06.789Z,1016.24
2023-04-27T09:41:06.815Z,1016.27
2023-04-27T09:42:06.860Z,1016.20
2023-04-27T09:43:06.880Z,1016.18
2023-04-27T09:45:07.232Z,1016.12
2023-04-27T09:46:07.093Z,1016.13
2023-04-27T09:47:07.002Z,1016.12
2023-04-27T09:48:07.045Z,1016.12
2023-04-27T09:49:07.056Z,1016.14
2023-04-27T09:50:07.088Z,1016.12
2023-04-27T09:51:07.125Z,1016.13
2023-04-27T09:52:07.462Z,1016.12
2023-04-27T09:53:07.181Z,1016.13
2023-04-27T09:54:07.210Z,1016.16
2023-04-27T09:55:07.248Z,1016.13
2023-04-27T09:57:07.414Z,1016.19
2023-04-27T09:59:07.718Z,1016.13
2023-04-27T10:00:07.399Z,1016.13
2023-04-27T10:01:07.494Z,1016.19
2023-04-27T10:02:20.789Z,1016.15
2023-04-27T10:03:07.590Z,1016.08
2023-04-27T10:04:07.787Z,1016.08
2023-04-27T10:05:07.568Z,1016.17
2023-04-27T10:06:07.604Z,1016.11
2023-04-27T10:07:07.626Z,1016.09
2023-04-27T10:08:07.646Z,1016.08
2023-04-27T10:09:07.702Z,1016.05
2023-04-27T10:10:07.717Z,1016.00
2023-04-27T10:11:07.749Z,1016.06
2023-04-27T10:12:08.079Z,1016.02
2023-04-27T10:13:07.803Z,1016.07
2023-04-27T10:14:07.829Z,1015.99
2023-04-27T10:15:07.888Z,1016.06
2023-04-27T10:16:07.952Z,1016.00
2023-04-27T10:17:08.037Z,1016.02
2023-04-27T10:18:08.310Z,1016.03
2023-04-27T10:19:08.003Z,1016.00
2023-04-27T10:20:08.136Z,1016.02
2023-04-27T10:21:08.059Z,1016.02
2023-04-27T10:22:08.139Z,1016.04
2023-04-27T10:23:08.142Z,1016.00
2023-04-27T10:24:08.407Z,1015.98
2023-04-27T10:25:08.226Z,1015.95
2023-04-27T10:26:08.295Z,1015.97
2023-04-27T10:27:08.269Z,1015.87
2023-04-27T10:28:08.404Z,1015.85
2023-04-27T10:29:08.302Z,1015.84
2023-04-27T10:30:08.339Z,1015.84
2023-04-27T10:31:08.457Z,1015.86
2023-04-27T10:32:08.433Z,1015.80
2023-04-27T10:33:08.623Z,1015.84
2023-04-27T10:34:08.503Z,1015.83
2023-04-27T10:35:08.587Z,1015.79
2023-04-27T10:36:08.832Z,1015.76
2023-04-27T10:37:08.569Z,1015.77
2023-04-27T10:38:08.632Z,1015.77
2023-04-27T10:39:08.634Z,1015.76
2023-04-27T10:40:08.657Z,1015.74
2023-04-27T10:41:08.691Z,1015.73
2023-04-27T10:42:08.719Z,1015.73
2023-04-27T10:43:09.073Z,1015.71
2023-04-27T10:44:08.796Z,1015.72
2023-04-27T10:45:08.832Z,1015.71
2023-04-27T10:46:08.885Z,1015.68
2023-04-27T10:47:08.911Z,1015.74
2023-04-27T10:48:08.991Z,1015.73
2023-04-27T10:49:08.954Z,1015.71
2023-04-27T10:50:09.278Z,1015.70
2023-04-27T10:51:09.010Z,1015.71
2023-04-27T10:52:09.099Z,1015.71
2023-04-27T10:53:09.070Z,1015.70
2023-04-27T10:54:09.115Z,1015.70
2023-04-27T10:55:09.135Z,1015.72
2023-04-27T10:56:09.309Z,1015.75
2023-04-27T10:57:09.227Z,1015.77
2023-04-27T10:58:09.262Z,1015.71
2023-04-27T10:59:09.266Z,1015.73
2023-04-27T11:00:09.311Z,1015.69
2023-04-27T11:02:09.716Z,1015.70
2023-04-27T11:03:09.486Z,1015.74
2023-04-27T11:04:09.455Z,1015.73
2023-04-27T11:05:09.491Z,1015.74
2023-04-27T11:06:09.521Z,1015.70
2023-04-27T11:07:09.536Z,1015.65
2023-04-27T11:08:09.853Z,1015.64
2023-04-27T11:10:09.608Z,1015.68
2023-04-27T11:11:09.680Z,1015.67
2023-04-27T11:12:09.674Z,1015.68
2023-04-27T11:13:09.725Z,1015.77
2023-04-27T11:14:10.041Z,1015.72
2023-04-27T11:15:09.772Z,1015.67
2023-04-27T11:16:09.828Z,1015.67
2023-04-27T11:17:09.834Z,1015.72
2023-04-27T11:18:09.893Z,1015.72
2023-04-27T11:19:09.923Z,1015.72
2023-04-27T11:20:10.045Z,1015.68
2023-04-27T11:21:10.265Z,1015.64
2023-04-27T11:22:10.003Z,1015.65
2023-04-27T11:23:10.040Z,1015.63
2023-04-27T11:24:10.099Z,1015.64
2023-04-27T11:25:10.173Z,1015.67
2023-04-27T11:26:10.134Z,1015.64
2023-04-27T11:27:10.166Z,1015.61
2023-04-27T11:28:10.498Z,1015.66
2023-04-27T11:29:10.256Z,1015.62
2023-04-27T11:30:10.254Z,1015.61
2023-04-27T11:31:10.317Z,1015.58
2023-04-27T11:32:10.332Z,1015.60
2023-04-27T11:33:10.406Z,1015.55
2023-04-27T11:34:10.394Z,1015.57
2023-04-27T11:35:10.838Z,1015.50
2023-04-27T11:36:10.457Z,1015.54
2023-04-27T11:37:18.455Z,1015.53
2023-04-27T11:38:10.517Z,1015.54
2023-04-27T11:39:10.583Z,1015.50
2023-04-27T11:40:10.577Z,1015.50
2023-04-27T11:41:10.613Z,1015.46
2023-04-27T11:42:10.940Z,1015.45
2023-04-27T11:43:10.682Z,1015.45
2023-04-27T11:44:10.716Z,1015.42
2023-04-27T11:45:10.742Z,1015.42
2023-04-27T11:46:10.864Z,1015.40
2023-04-27T11:47:10.903Z,1015.36
2023-04-27T11:48:10.891Z,1015.38
2023-04-27T11:49:10.961Z,1015.40
2023-04-27T11:50:10.907Z,1015.40
2023-04-27T11:51:10.967Z,1015.36
2023-04-27T11:52:10.962Z,1015.32
2023-04-27T11:53:10.996Z,1015.28
2023-04-27T11:54:11.094Z,1015.27
2023-04-27T11:55:11.372Z,1015.24
2023-04-27T11:56:11.259Z,1015.22
2023-04-27T11:57:11.146Z,1015.21
2023-04-27T11:58:11.156Z,1015.22
2023-04-27T11:59:11.186Z,1015.18
2023-04-27T12:00:11.719Z,1015.19
2023-04-27T12:01:11.253Z,1015.20
2023-04-27T12:02:11.667Z,1015.22
2023-04-27T12:03:11.531Z,1015.18
2023-04-27T12:04:11.461Z,1015.20
2023-04-27T12:05:11.570Z,1015.16
2023-04-27T12:06:31.713Z,1015.17
2023-04-27T12:07:11.479Z,1015.23
2023-04-27T12:09:11.827Z,1015.27
2023-04-27T12:10:11.558Z,1015.20
2023-04-27T12:11:11.585Z,1015.19
2023-04-27T12:12:11.611Z,1015.16
2023-04-27T12:13:11.647Z,1015.20
2023-04-27T12:14:11.802Z,1015.19
2023-04-27T12:15:11.724Z,1015.21
2023-04-27T12:16:12.064Z,1015.23
2023-04-27T12:17:11.821Z,1015.18
2023-04-27T12:19:11.866Z,1015.19
2023-04-27T12:21:11.905Z,1015.12
2023-04-27T12:22:11.939Z,1015.08
2023-04-27T12:24:12.603Z,1015.04
2023-04-27T12:25:12.034Z,1015.05
2023-04-27T12:26:14.826Z,1015.08
2023-04-27T12:27:12.118Z,1015.04
2023-04-27T12:29:12.225Z,1014.99
2023-04-27T12:30:12.345Z,1014.99
2023-04-27T12:31:12.584Z,1014.93
2023-04-27T12:33:12.419Z,1014.94
2023-04-27T12:34:12.514Z,1014.90
2023-04-27T12:35:12.368Z,1014.93
2023-04-27T12:36:12.382Z,1014.94
2023-04-27T12:37:12.420Z,1014.97
2023-04-27T12:38:12.783Z,1015.02
2023-04-27T12:39:12.484Z,1015.01
2023-04-27T12:40:12.613Z,1015.03
2023-04-27T12:41:12.545Z,1015.08
2023-04-27T12:42:12.584Z,1015.10
2023-04-27T12:43:12.619Z,1015.13
2023-04-27T12:44:12.948Z,1015.17
2023-04-27T12:45:12.974Z,1015.12
2023-04-27T12:46:12.819Z,1015.12
2023-04-27T12:47:20.079Z,1015.14
2023-04-27T12:48:12.891Z,1015.11